地図

経路データ

SID SEASON NUMBER BASIN SUBBASIN NAME ISO_TIME NATURE LAT LON WMO_WIND WMO_PRES WMO_AGENCY TRACK_TYPE DIST2LAND LANDFALL IFLAG USA_AGENCY USA_ATCF_ID USA_LAT USA_LON USA_RECORD USA_STATUS USA_WIND USA_PRES USA_SSHS USA_R34_NE USA_R34_SE USA_R34_SW USA_R34_NW USA_R50_NE USA_R50_SE USA_R50_SW USA_R50_NW USA_R64_NE USA_R64_SE USA_R64_SW USA_R64_NW USA_POCI USA_ROCI USA_RMW USA_EYE TOKYO_LAT TOKYO_LON TOKYO_GRADE TOKYO_WIND TOKYO_PRES TOKYO_R50_DIR TOKYO_R50_LONG TOKYO_R50_SHORT TOKYO_R30_DIR TOKYO_R30_LONG TOKYO_R30_SHORT TOKYO_LAND CMA_LAT CMA_LON CMA_CAT CMA_WIND CMA_PRES HKO_LAT HKO_LON HKO_CAT HKO_WIND HKO_PRES NEWDELHI_LAT NEWDELHI_LON NEWDELHI_GRADE NEWDELHI_WIND NEWDELHI_PRES NEWDELHI_CI NEWDELHI_DP NEWDELHI_POCI REUNION_LAT REUNION_LON REUNION_TYPE REUNION_WIND REUNION_PRES REUNION_TNUM REUNION_CI REUNION_RMW REUNION_R34_NE REUNION_R34_SE REUNION_R34_SW REUNION_R34_NW REUNION_R50_NE REUNION_R50_SE REUNION_R50_SW REUNION_R50_NW REUNION_R64_NE REUNION_R64_SE REUNION_R64_SW REUNION_R64_NW BOM_LAT BOM_LON BOM_TYPE BOM_WIND BOM_PRES BOM_TNUM BOM_CI BOM_RMW BOM_R34_NE BOM_R34_SE BOM_R34_SW BOM_R34_NW BOM_R50_NE BOM_R50_SE BOM_R50_SW BOM_R50_NW BOM_R64_NE BOM_R64_SE BOM_R64_SW BOM_R64_NW BOM_ROCI BOM_POCI BOM_EYE BOM_POS_METHOD BOM_PRES_METHOD NADI_LAT NADI_LON NADI_CAT NADI_WIND NADI_PRES WELLINGTON_LAT WELLINGTON_LON WELLINGTON_WIND WELLINGTON_PRES DS824_LAT DS824_LON DS824_STAGE DS824_WIND DS824_PRES TD9636_LAT TD9636_LON TD9636_STAGE TD9636_WIND TD9636_PRES TD9635_LAT TD9635_LON TD9635_WIND TD9635_PRES TD9635_ROCI NEUMANN_LAT NEUMANN_LON NEUMANN_CLASS NEUMANN_WIND NEUMANN_PRES MLC_LAT MLC_LON MLC_CLASS MLC_WIND MLC_PRES USA_GUST BOM_GUST BOM_GUST_PER REUNION_GUST REUNION_GUST_PER USA_SEAHGT USA_SEARAD_NE USA_SEARAD_SE USA_SEARAD_SW USA_SEARAD_NW STORM_SPEED STORM_DIR
1934278N17135 1934 64 WP MM NOT_NAMED 1934-10-05 09:00:00 NR 16.8000 134.800 main 1125 1068 __________O___ -1 16.8000 134.800 4 12 222
1934278N17135 1934 64 WP MM NOT_NAMED 1934-10-05 12:00:00 NR 16.3369 134.370 main 1063 1010 __________P___ -1 16.3369 134.370 4 12 223
1934278N17135 1934 64 WP MM NOT_NAMED 1934-10-05 15:00:00 NR 15.9386 133.973 main 1006 968 __________P___ -1 15.9386 133.973 4 10 226
1934278N17135 1934 64 WP MM NOT_NAMED 1934-10-05 18:00:00 NR 15.6709 133.640 main 958 934 __________P___ -1 15.6709 133.640 4 6 238
1934278N17135 1934 64 WP MM NOT_NAMED 1934-10-05 21:00:00 NR 15.6000 133.400 main 934 924 __________O___ -1 15.6000 133.400 4 4 286
1934278N17135 1934 64 WP MM NOT_NAMED 1934-10-06 00:00:00 NR 15.7699 133.270 main 933 928 __________P___ -1 15.7699 133.270 4 6 341
1934278N17135 1934 64 WP MM NOT_NAMED 1934-10-06 03:00:00 NR 16.1371 133.212 main 938 938 __________P___ -1 16.1371 133.212 4 9 353
1934278N17135 1934 64 WP MM NOT_NAMED 1934-10-06 06:00:00 NR 16.6357 133.173 main 964 964 __________P___ -1 16.6357 133.173 4 11 354
1934278N17135 1934 64 WP MM NOT_NAMED 1934-10-06 09:00:00 NR 17.2000 133.100 main 990 990 __________O___ -1 17.2000 133.100 4 12 343
1934278N17135 1934 64 WP MM NOT_NAMED 1934-10-06 12:00:00 NR 17.7615 132.819 main 998 994 __________P___ -1 17.7615 132.819 4 13 334
1934278N17135 1934 64 WP MM NOT_NAMED 1934-10-06 15:00:00 NR 18.3652 132.511 main 1001 997 __________P___ -1 18.3652 132.511 4 13 337
1934278N17135 1934 64 WP MM NOT_NAMED 1934-10-06 18:00:00 NR 18.9612 132.273 main 1017 1014 __________P___ -1 18.9612 132.273 4 12 345
1934278N17135 1934 64 WP MM NOT_NAMED 1934-10-06 21:00:00 NR 19.5000 132.200 main 1040 1040 __________O___ -1 19.5000 132.200 4 11 8
1934278N17135 1934 64 WP MM NOT_NAMED 1934-10-07 00:00:00 NR 20.0249 132.429 main 1075 1075 __________P___ -1 20.0249 132.429 4 11 31
1934278N17135 1934 64 WP MM NOT_NAMED 1934-10-07 03:00:00 NR 20.4710 132.830 main 1125 1125 __________P___ -1 20.4710 132.830 4 11 48
1934278N17135 1934 64 WP MM NOT_NAMED 1934-10-07 06:00:00 NR 20.7814 133.317 main 1168 1162 __________P___ -1 20.7814 133.317 4 10 65
1934278N17135 1934 64 WP MM NOT_NAMED 1934-10-07 09:00:00 NR 20.9000 133.800 main 1169 1169 __________O___ -1 20.9000 133.800 4 9 89
1934278N17135 1934 64 WP MM NOT_NAMED 1934-10-07 12:00:00 NR 20.7895 134.235 main 1191 1191 __________P___ -1 20.7895 134.235 4 9 118
1934278N17135 1934 64 WP MM NOT_NAMED 1934-10-07 15:00:00 NR 20.4901 134.634 main 1235 1235 __________P___ -1 20.4901 134.634 4 10 137
1934278N17135 1934 64 WP MM NOT_NAMED 1934-10-07 18:00:00 NR 20.0706 134.941 main 1288 1288 __________P___ -1 20.0706 134.941 4 10 154
1934278N17135 1934 64 WP MM NOT_NAMED 1934-10-07 21:00:00 NR 19.6000 135.100 main 1305 1280 __________O___ -1 19.6000 135.100 4 10 170
1934278N17135 1934 64 WP MM NOT_NAMED 1934-10-08 00:00:00 NR 19.0873 135.126 main 1280 1244 __________P___ -1 19.0873 135.126 4 11 185
1934278N17135 1934 64 WP MM NOT_NAMED 1934-10-08 03:00:00 NR 18.5557 134.997 main 1244 1187 __________P___ -1 18.5557 134.997 4 11 201
1934278N17135 1934 64 WP MM NOT_NAMED 1934-10-08 06:00:00 NR 18.0964 134.719 main 1187 1134 __________P___ -1 18.0964 134.719 4 10 221
1934278N17135 1934 64 WP MM NOT_NAMED 1934-10-08 09:00:00 NR 17.8000 134.300 main 1134 1080 __________O___ -1 17.8000 134.300 4 11 252
1934278N17135 1934 64 WP MM NOT_NAMED 1934-10-08 12:00:00 NR 17.7722 133.658 main 1080 1013 __________P___ -1 17.7722 133.658 4 13 275
1934278N17135 1934 64 WP MM NOT_NAMED 1934-10-08 15:00:00 NR 17.9091 132.901 main 1013 957 __________P___ -1 17.9091 132.901 4 15 285
1934278N17135 1934 64 WP MM NOT_NAMED 1934-10-08 18:00:00 NR 18.1409 132.168 main 957 919 __________P___ -1 18.1409 132.168 4 13 292
1934278N17135 1934 64 WP MM NOT_NAMED 1934-10-08 21:00:00 NR 18.4000 131.600 main 919 898 __________O___ -1 18.4000 131.600 4 9 293
1934278N17135 1934 64 WP MM NOT_NAMED 1934-10-09 00:00:00 NR 18.4981 131.280 main 898 890 __________P___ -1 18.4981 131.280 4 5 298
1934278N17135 1934 64 WP MM NOT_NAMED 1934-10-09 03:00:00 NR 18.6245 131.156 main 896 896 __________P___ -1 18.6245 131.156 4 3 351
1934278N17135 1934 64 WP MM NOT_NAMED 1934-10-09 06:00:00 NR 18.8387 131.229 main 909 909 __________P___ -1 18.8387 131.229 4 7 30
1934278N17135 1934 64 WP MM NOT_NAMED 1934-10-09 09:00:00 NR 19.2000 131.500 main 961 961 __________O___ -1 19.2000 131.500 4 13 37
1934278N17135 1934 64 WP MM NOT_NAMED 1934-10-09 12:00:00 NR 19.8379 132.030 main 1031 1031 __________P___ -1 19.8379 132.030 4 18 40
1934278N17135 1934 64 WP MM NOT_NAMED 1934-10-09 15:00:00 NR 20.6096 132.737 main 1117 1105 __________P___ -1 20.6096 132.737 4 21 41
1934278N17135 1934 64 WP MM NOT_NAMED 1934-10-09 18:00:00 NR 21.4009 133.477 main 1107 1049 __________P___ -1 21.4009 133.477 4 20 40
1934278N17135 1934 64 WP MM NOT_NAMED 1934-10-09 21:00:00 NR 22.1000 134.100 main 1049 1024 __________O___ -1 22.1000 134.100 4 13 39
1934278N17135 1934 64 WP MM NOT_NAMED 1934-10-10 00:00:00 NR 22.4342 134.375 main 1028 1000 __________P___ -1 22.4342 134.375 4 7 33
1934278N17135 1934 64 WP MM NOT_NAMED 1934-10-10 03:00:00 NR 22.6855 134.513 main 1000 973 __________P___ -1 22.6855 134.513 4 6 20
1934278N17135 1934 64 WP MM NOT_NAMED 1934-10-10 06:00:00 NR 22.9942 134.594 main 973 925 __________P___ -1 22.9942 134.594 4 8 12
1934278N17135 1934 64 WP MM NOT_NAMED 1934-10-10 09:00:00 NR 23.5000 134.700 main 925 844 __________O___ -1 23.5000 134.700 4 15 11
1934278N17135 1934 64 WP MM NOT_NAMED 1934-10-10 12:00:00 NR 24.4850 134.903 main 834 740 __________P___ -1 24.4850 134.903 4 22 11
1934278N17135 1934 64 WP MM NOT_NAMED 1934-10-10 15:00:00 NR 25.6613 135.156 main 736 649 __________P___ -1 25.6613 135.156 4 24 12
1934278N17135 1934 64 WP MM NOT_NAMED 1934-10-10 18:00:00 NR 26.8570 135.481 main 640 583 __________P___ -1 26.8570 135.481 4 23 17
1934278N17135 1934 64 WP MM NOT_NAMED 1934-10-10 21:00:00 NR 27.9000 135.900 main 583 548 __________O___ -1 27.9000 135.900 4 18 25
1934278N17135 1934 64 WP MM NOT_NAMED 1934-10-11 00:00:00 NR 28.4783 136.345 main 548 510 __________P___ -1 28.4783 136.345 4 13 41
1934278N17135 1934 64 WP MM NOT_NAMED 1934-10-11 03:00:00 NR 28.8968 136.891 main 512 484 __________P___ -1 28.8968 136.891 4 13 53
1934278N17135 1934 64 WP MM NOT_NAMED 1934-10-11 06:00:00 NR 29.2922 137.565 main 488 465 __________P___ -1 29.2922 137.565 4 16 56
1934278N17135 1934 64 WP MM NOT_NAMED 1934-10-11 09:00:00 NR 29.8000 138.400 main 470 458 __________O___ -1 29.8000 138.400 4 21 52
1934278N17135 1934 64 WP MM NOT_NAMED 1934-10-11 12:00:00 NR 30.5845 139.472 main 450 394 __________P___ -1 30.5845 139.472 4 26 50
1934278N17135 1934 64 WP MM NOT_NAMED 1934-10-11 15:00:00 NR 31.4926 140.709 main 386 334 __________P___ -1 31.4926 140.709 4 29 49
1934278N17135 1934 64 WP MM NOT_NAMED 1934-10-11 18:00:00 NR 32.4783 142.018 main 330 318 __________P___ -1 32.4783 142.018 4 30 47
1934278N17135 1934 64 WP MM NOT_NAMED 1934-10-11 21:00:00 NR 33.5000 143.300 main 326 324 __________O___ -1 33.5000 143.300 4 29 45
1934278N17135 1934 64 WP MM NOT_NAMED 1934-10-12 00:00:00 NR 34.5267 144.475 main 353 348 __________P___ -1 34.5267 144.475 4 28 42
1934278N17135 1934 64 WP MM NOT_NAMED 1934-10-12 03:00:00 NR 35.5533 145.557 main 423 423 __________P___ -1 35.5533 145.557 4 27 40
1934278N17135 1934 64 WP MM NOT_NAMED 1934-10-12 06:00:00 NR 36.5789 146.585 main 487 487 __________P___ -1 36.5789 146.585 4 26 39
1934278N17135 1934 64 WP MM NOT_NAMED 1934-10-12 09:00:00 NR 37.6000 147.600 main 521 __________O___ -1 37.6000 147.600 4 26 38

デジタル台風データ・検索

IBTrACS Databaseについて

本データベースは、米国NOAAが公開する1842年以降の世界の熱帯低気圧のベストトラックデータアーカイブInternational Best Track Archive for Climate Stewardship (IBTrACS)を、ウェブで閲覧しやすい形式に変換したものです。

最終更新日:2021-10-21